createdAt,value
2018-12-01T00:00:49.024Z,24.37
2018-12-01T00:03:18.472Z,29.80
2018-12-01T00:05:47.773Z,25.47
2018-12-01T00:08:17.080Z,25.73
2018-12-01T00:10:46.407Z,26.53
2018-12-01T00:13:15.788Z,27.17
2018-12-01T00:15:45.167Z,22.37
2018-12-01T00:18:14.511Z,28.40
2018-12-01T00:20:43.943Z,22.90
2018-12-01T00:23:13.295Z,29.90
2018-12-01T00:25:42.611Z,25.43
2018-12-01T00:28:12.037Z,26.97
2018-12-01T00:30:41.823Z,26.80
2018-12-01T00:33:11.139Z,24.20
2018-12-01T00:35:40.423Z,21.03
2018-12-01T00:38:09.719Z,23.93
2018-12-01T00:40:39.094Z,24.77
2018-12-01T00:43:08.390Z,25.43
2018-12-01T00:45:37.871Z,27.37
2018-12-01T00:48:07.159Z,29.03
2018-12-01T00:50:36.539Z,24.97
2018-12-01T00:53:06.242Z,25.23
2018-12-01T00:55:35.555Z,24.33
2018-12-01T00:58:05.016Z,28.03
2018-12-01T01:00:34.479Z,26.30
2018-12-01T01:03:04.007Z,21.80
2018-12-01T01:05:33.348Z,21.97
2018-12-01T01:08:02.875Z,28.47
2018-12-01T01:10:34.696Z,27.47
2018-12-01T01:13:03.145Z,25.93
2018-12-01T01:15:32.510Z,18.83
2018-12-01T01:18:01.916Z,26.33
2018-12-01T01:20:31.367Z,27.17
2018-12-01T01:23:00.897Z,24.97
2018-12-01T01:25:30.242Z,23.00
2018-12-01T01:27:59.587Z,20.63
2018-12-01T01:30:30.476Z,30.77
2018-12-01T01:33:16.598Z,27.90
2018-12-01T01:35:45.933Z,23.07
2018-12-01T01:38:15.357Z,22.70
2018-12-01T01:40:44.722Z,25.17
2018-12-01T01:43:14.187Z,27.80
2018-12-01T01:45:43.549Z,27.13
2018-12-01T01:48:12.883Z,24.23
2018-12-01T01:50:42.241Z,24.77
2018-12-01T01:53:11.526Z,27.63
2018-12-01T01:55:40.976Z,26.10
2018-12-01T01:58:10.435Z,23.83
2018-12-01T02:00:39.835Z,26.77
2018-12-01T02:03:09.176Z,24.20
2018-12-01T02:05:38.482Z,29.33
2018-12-01T02:08:08.214Z,24.70
2018-12-01T02:10:37.573Z,25.63
2018-12-01T02:13:06.908Z,28.17
2018-12-01T02:15:36.189Z,27.80
2018-12-01T02:18:06.059Z,30.67
2018-12-01T02:20:35.464Z,28.90
2018-12-01T02:23:04.752Z,31.50
2018-12-01T02:25:34.136Z,27.93
2018-12-01T02:28:05.671Z,24.30
2018-12-01T02:30:35.074Z,26.30
2018-12-01T02:33:04.396Z,34.13
2018-12-01T02:35:33.620Z,25.53
2018-12-01T02:38:02.976Z,25.93
2018-12-01T02:40:32.329Z,23.00
2018-12-01T02:43:01.731Z,22.10
2018-12-01T02:45:47.904Z,27.40
2018-12-01T02:48:17.248Z,28.13
2018-12-01T02:50:46.568Z,27.20
2018-12-01T02:53:15.903Z,32.73
2018-12-01T02:55:45.386Z,24.50
2018-12-01T02:58:14.680Z,26.03
2018-12-01T03:00:52.873Z,24.13
2018-12-01T03:03:22.171Z,23.87
2018-12-01T03:05:51.526Z,23.33
2018-12-01T03:08:20.905Z,24.67
2018-12-01T03:10:50.247Z,25.40
2018-12-01T03:13:19.539Z,24.43
2018-12-01T03:15:48.849Z,23.00
2018-12-01T03:18:18.152Z,25.20
2018-12-01T03:20:47.547Z,26.43
2018-12-01T03:23:16.903Z,26.60
2018-12-01T03:25:46.263Z,24.97
2018-12-01T03:28:15.581Z,23.10
2018-12-01T03:30:44.934Z,28.57
2018-12-01T03:33:14.251Z,25.80
2018-12-01T03:35:43.572Z,28.47
2018-12-01T03:38:12.936Z,26.90
2018-12-01T03:40:48.355Z,27.73
2018-12-01T03:43:17.990Z,28.40
2018-12-01T03:45:47.342Z,27.40
2018-12-01T03:48:16.638Z,29.13
2018-12-01T03:50:46.092Z,24.77
2018-12-01T03:53:15.456Z,26.53
2018-12-01T03:55:44.827Z,27.53
2018-12-01T03:58:14.156Z,25.97
2018-12-01T04:00:43.542Z,22.83
2018-12-01T04:03:12.791Z,24.67
2018-12-01T04:05:42.117Z,25.30
2018-12-01T04:08:11.492Z,24.73
2018-12-01T04:10:41.907Z,27.83
2018-12-01T04:13:11.256Z,22.63
2018-12-01T04:15:40.572Z,24.20
2018-12-01T04:18:09.864Z,21.97
2018-12-01T04:20:39.144Z,24.20
2018-12-01T04:23:08.756Z,22.67
2018-12-01T04:25:38.051Z,26.50
2018-12-01T04:28:07.444Z,25.97
2018-12-01T04:30:36.817Z,28.43
2018-12-01T04:33:06.618Z,23.83
2018-12-01T04:35:35.929Z,22.90
2018-12-01T04:38:05.177Z,25.00
2018-12-01T04:40:34.526Z,25.33
2018-12-01T04:43:03.871Z,28.50
2018-12-01T04:45:33.185Z,30.37
2018-12-01T04:48:02.551Z,21.70
2018-12-01T04:50:33.943Z,26.77
2018-12-01T04:53:03.324Z,24.93
2018-12-01T04:55:32.668Z,21.10
2018-12-01T04:58:02.003Z,21.97
2018-12-01T05:00:31.316Z,25.47
2018-12-01T05:03:00.661Z,20.67
2018-12-01T05:05:30.003Z,20.50
2018-12-01T05:07:59.366Z,21.77
2018-12-01T05:10:28.907Z,23.17
2018-12-01T05:12:58.171Z,29.17
2018-12-01T05:15:27.525Z,21.90
2018-12-01T05:17:56.779Z,21.80
2018-12-01T05:20:26.139Z,23.50
2018-12-01T05:22:55.479Z,26.17
2018-12-01T05:25:25.028Z,19.50
2018-12-01T05:27:54.292Z,22.03
2018-12-01T05:30:23.547Z,23.27
2018-12-01T05:32:52.798Z,26.67
2018-12-01T05:35:23.599Z,24.77
2018-12-01T05:37:52.955Z,20.37
2018-12-01T05:40:22.605Z,21.77
2018-12-01T05:42:51.972Z,22.97
2018-12-01T05:45:23.205Z,27.53
2018-12-01T05:47:53.178Z,21.37
2018-12-01T05:50:23.181Z,19.87
2018-12-01T05:52:54.909Z,19.23
2018-12-01T05:55:24.312Z,22.80
2018-12-01T05:57:53.664Z,20.23
2018-12-01T06:00:23.040Z,23.77
2018-12-01T06:02:52.365Z,24.67
2018-12-01T06:05:21.685Z,25.37
2018-12-01T06:07:50.980Z,18.53
2018-12-01T06:10:22.667Z,28.10
2018-12-01T06:12:53.340Z,21.23
2018-12-01T06:15:22.823Z,23.67
2018-12-01T06:17:52.090Z,19.63
2018-12-01T06:20:23.127Z,21.03
2018-12-01T06:22:52.432Z,24.73
2018-12-01T06:25:23.483Z,25.77
2018-12-01T06:27:56.687Z,18.47
2018-12-01T06:30:25.995Z,20.37
2018-12-01T06:32:55.323Z,25.97
2018-12-01T06:35:24.666Z,24.23
2018-12-01T06:37:53.922Z,31.17
2018-12-01T06:40:23.165Z,21.80
2018-12-01T06:42:52.612Z,22.23
2018-12-01T06:45:21.975Z,27.30
2018-12-01T06:47:51.307Z,21.77
2018-12-01T06:50:22.180Z,22.07
2018-12-01T06:52:52.975Z,21.73
2018-12-01T06:55:23.529Z,23.93
2018-12-01T06:57:53.204Z,24.77
2018-12-01T07:00:26.035Z,25.00
2018-12-01T07:02:56.701Z,21.23
2018-12-01T07:05:26.059Z,22.43
2018-12-01T07:07:55.640Z,24.17
2018-12-01T07:10:25.013Z,20.83
2018-12-01T07:12:59.503Z,22.63
2018-12-01T07:15:35.313Z,22.00
2018-12-01T07:18:20.259Z,23.20
2018-12-01T07:20:49.859Z,23.30
2018-12-01T07:23:19.179Z,25.17
2018-12-01T07:25:48.498Z,23.83
2018-12-01T07:28:17.903Z,21.33
2018-12-01T07:30:47.212Z,25.90
2018-12-01T07:33:16.552Z,22.77
2018-12-01T07:35:45.831Z,21.27
2018-12-01T07:38:15.343Z,24.23
2018-12-01T07:40:44.865Z,25.00
2018-12-01T07:43:14.210Z,20.87
2018-12-01T07:45:43.480Z,20.73
2018-12-01T07:48:12.733Z,21.57
2018-12-01T07:50:42.036Z,28.03
2018-12-01T07:53:11.448Z,23.07
2018-12-01T07:55:43.854Z,25.40
2018-12-01T07:58:13.142Z,18.30
2018-12-01T08:00:42.484Z,20.63
2018-12-01T08:03:11.819Z,26.20
2018-12-01T08:05:41.088Z,21.90
2018-12-01T08:08:10.312Z,19.50
2018-12-01T08:10:40.406Z,20.50
2018-12-01T08:13:09.715Z,22.77
2018-12-01T08:15:39.017Z,24.63
2018-12-01T08:18:08.277Z,25.77
2018-12-01T08:20:37.548Z,21.17
2018-12-01T08:23:06.927Z,20.53
2018-12-01T08:25:36.497Z,23.43
2018-12-01T08:28:07.486Z,23.30
2018-12-01T08:30:36.840Z,17.47
2018-12-01T08:33:06.661Z,16.03
2018-12-01T08:35:36.057Z,23.43
2018-12-01T08:38:05.369Z,20.17
2018-12-01T08:40:35.230Z,19.47
2018-12-01T08:43:04.923Z,18.33
2018-12-01T08:45:34.218Z,16.97
2018-12-01T08:48:03.521Z,20.83
2018-12-01T08:50:36.999Z,15.73
2018-12-01T08:53:06.581Z,18.20
2018-12-01T08:55:35.909Z,14.93
2018-12-01T08:58:05.332Z,20.13
2018-12-01T09:00:39.951Z,20.40
2018-12-01T09:03:17.339Z,15.83
2018-12-01T09:05:46.700Z,19.00
2018-12-01T09:08:16.301Z,22.20
2018-12-01T09:10:45.606Z,21.03
2018-12-01T09:13:14.931Z,19.13
2018-12-01T09:15:44.300Z,19.87
2018-12-01T09:18:13.625Z,23.73
2018-12-01T09:20:42.900Z,21.63
2018-12-01T09:23:12.151Z,19.00
2018-12-01T09:25:41.447Z,20.77
2018-12-01T09:28:10.917Z,18.90
2018-12-01T09:30:42.204Z,20.60
2018-12-01T09:33:11.689Z,21.93
2018-12-01T09:35:41.616Z,19.07
2018-12-01T09:38:10.906Z,26.50
2018-12-01T09:40:40.271Z,26.93
2018-12-01T09:43:09.785Z,19.70
2018-12-01T09:45:39.072Z,16.20
2018-12-01T09:48:08.420Z,19.60
2018-12-01T09:50:38.700Z,16.33
2018-12-01T09:53:09.028Z,16.47
2018-12-01T09:55:38.350Z,15.33
2018-12-01T09:58:07.879Z,19.13
2018-12-01T10:00:38.169Z,15.37
2018-12-01T10:03:08.830Z,15.83
2018-12-01T10:05:38.150Z,18.77
2018-12-01T10:08:08.121Z,14.77
2018-12-01T10:10:37.416Z,15.20
2018-12-01T10:13:06.821Z,14.27
2018-12-01T10:15:37.315Z,16.00
2018-12-01T10:18:08.813Z,14.87
2018-12-01T10:20:38.701Z,16.47
2018-12-01T10:23:11.187Z,13.07
2018-12-01T10:25:40.540Z,12.60
2018-12-01T10:28:11.285Z,19.30
2018-12-01T10:30:40.543Z,13.73
2018-12-01T10:33:09.873Z,14.83
2018-12-01T10:35:39.244Z,15.23
2018-12-01T10:38:15.107Z,14.30
2018-12-01T10:40:45.501Z,17.50
2018-12-01T10:43:14.831Z,14.83
2018-12-01T10:45:44.131Z,17.13
2018-12-01T10:48:13.394Z,16.83
2018-12-01T10:50:42.760Z,15.77
2018-12-01T10:53:12.153Z,15.23
2018-12-01T10:55:42.504Z,13.87
2018-12-01T10:58:15.911Z,15.17
2018-12-01T11:00:52.085Z,12.27
2018-12-01T11:03:29.542Z,20.23
2018-12-01T11:06:00.505Z,10.03
2018-12-01T11:08:29.911Z,17.10
2018-12-01T11:10:59.267Z,14.37
2018-12-01T11:13:28.682Z,13.37
2018-12-01T11:15:58.155Z,12.63
2018-12-01T11:18:27.581Z,12.97
2018-12-01T11:20:57.115Z,16.53
2018-12-01T11:23:26.521Z,13.40
2018-12-01T11:25:56.103Z,14.47
2018-12-01T11:28:25.404Z,14.00
2018-12-01T11:30:56.189Z,11.87
2018-12-01T11:33:26.496Z,11.63
2018-12-01T11:35:55.964Z,13.77
2018-12-01T11:38:26.432Z,13.03
2018-12-01T11:40:55.793Z,10.63
2018-12-01T11:43:25.163Z,12.03
2018-12-01T11:45:54.613Z,14.27
2018-12-01T11:48:24.080Z,11.73
2018-12-01T11:50:53.430Z,14.53
2018-12-01T11:53:22.791Z,13.03
2018-12-01T11:55:52.079Z,12.93
2018-12-01T11:58:21.465Z,11.67
2018-12-01T12:00:50.708Z,15.87
2018-12-01T12:03:20.308Z,11.77
2018-12-01T12:05:49.607Z,13.03
2018-12-01T12:08:22.500Z,15.80
2018-12-01T12:10:52.207Z,16.67
2018-12-01T12:13:24.656Z,10.37
2018-12-01T12:15:54.105Z,9.90
2018-12-01T12:18:23.624Z,13.67
2018-12-01T12:20:52.961Z,9.80
2018-12-01T12:23:22.362Z,15.83
2018-12-01T12:25:51.701Z,13.57
2018-12-01T12:28:21.086Z,13.87
2018-12-01T12:30:50.508Z,9.37
2018-12-01T12:33:19.945Z,13.23
2018-12-01T12:35:50.401Z,11.23
2018-12-01T12:38:19.740Z,9.10
2018-12-01T12:40:51.167Z,15.53
2018-12-01T12:43:20.490Z,11.60
2018-12-01T12:45:49.757Z,9.73
2018-12-01T12:48:19.064Z,12.43
2018-12-01T12:50:53.122Z,11.93
2018-12-01T12:53:17.796Z,9.07
2018-12-01T12:55:47.169Z,7.57
2018-12-01T12:58:16.587Z,10.53
2018-12-01T13:00:46.185Z,8.53
2018-12-01T13:03:15.514Z,8.77
2018-12-01T13:05:46.532Z,8.43
2018-12-01T13:08:19.899Z,12.33
2018-12-01T13:10:49.820Z,11.93
2018-12-01T13:13:19.146Z,11.20
2018-12-01T13:15:49.629Z,14.43
2018-12-01T13:18:19.082Z,11.10
2018-12-01T13:20:48.788Z,11.47
2018-12-01T13:23:18.083Z,10.90
2018-12-01T13:25:48.460Z,10.47
2018-12-01T13:28:25.467Z,9.03
2018-12-01T13:31:00.810Z,8.97
2018-12-01T13:33:30.303Z,13.13
2018-12-01T13:35:59.643Z,12.80
2018-12-01T13:38:30.126Z,7.07
2018-12-01T13:40:59.482Z,9.90
2018-12-01T13:43:28.799Z,10.63
2018-12-01T13:46:00.292Z,9.70
2018-12-01T13:48:29.625Z,11.53
2018-12-01T13:51:00.083Z,10.33
2018-12-01T13:53:29.513Z,11.50
2018-12-01T13:55:58.953Z,14.17
2018-12-01T13:58:28.336Z,8.70
2018-12-01T14:00:57.886Z,11.13
2018-12-01T14:03:27.280Z,10.07
2018-12-01T14:05:56.714Z,10.90
2018-12-01T14:08:26.141Z,11.37
2018-12-01T14:10:55.565Z,10.23
2018-12-01T14:13:24.840Z,8.97
2018-12-01T14:15:54.227Z,9.67
2018-12-01T15:42:27.189Z,10.60
2018-12-01T15:44:56.529Z,8.03
2018-12-01T15:47:25.935Z,9.13
2018-12-01T15:49:55.361Z,9.40
2018-12-01T15:52:24.824Z,6.37
2018-12-01T15:54:54.142Z,8.63
2018-12-01T15:57:23.716Z,8.03
2018-12-01T15:59:54.074Z,9.57
2018-12-01T16:02:23.613Z,6.40
2018-12-01T16:04:52.966Z,5.67
2018-12-01T16:07:22.332Z,8.07
2018-12-01T16:09:53.854Z,7.10
2018-12-01T16:12:23.176Z,8.97
2018-12-01T16:14:52.463Z,8.27
2018-12-01T16:17:21.810Z,8.20
2018-12-01T16:19:51.118Z,5.97
2018-12-01T16:22:21.484Z,8.00
2018-12-01T16:24:50.848Z,8.03
2018-12-01T16:27:21.658Z,9.20
2018-12-01T16:29:51.382Z,8.57
2018-12-01T16:32:20.698Z,7.67
2018-12-01T16:34:50.053Z,8.50
2018-12-01T16:37:19.334Z,8.27
2018-12-01T16:39:48.768Z,6.37
2018-12-01T16:42:18.232Z,6.13
2018-12-01T16:44:47.684Z,4.57
2018-12-01T16:47:17.070Z,6.70
2018-12-01T16:49:46.467Z,7.23
2018-12-01T16:52:16.950Z,6.83
2018-12-01T16:54:46.250Z,7.27
2018-12-01T16:57:15.616Z,8.67
2018-12-01T16:59:44.931Z,6.10
2018-12-01T17:02:14.228Z,7.07
2018-12-01T17:04:43.589Z,7.37
2018-12-01T17:07:12.934Z,7.53
2018-12-01T17:09:43.444Z,6.73
2018-12-01T17:12:12.847Z,8.43
2018-12-01T17:14:53.855Z,5.43
2018-12-01T17:17:23.221Z,5.47
2018-12-01T17:19:52.632Z,6.90
2018-12-01T17:22:22.616Z,8.80
2018-12-01T17:24:51.935Z,7.67
2018-12-01T17:27:21.328Z,8.13
2018-12-01T17:29:50.605Z,7.43
2018-12-01T17:32:20.130Z,10.63
2018-12-01T17:34:50.506Z,7.70
2018-12-01T17:37:21.598Z,7.20
2018-12-01T17:39:50.985Z,8.07
2018-12-01T17:42:21.147Z,11.60
2018-12-01T17:44:50.585Z,12.57
2018-12-01T17:47:20.585Z,9.63
2018-12-01T17:49:50.008Z,8.57
2018-12-01T17:52:27.156Z,5.87
2018-12-01T17:54:56.590Z,5.17
2018-12-01T17:57:26.546Z,7.47
2018-12-01T17:59:55.945Z,5.93
2018-12-01T18:02:25.345Z,7.03
2018-12-01T18:04:54.837Z,6.60
2018-12-01T18:07:24.233Z,7.43
2018-12-01T18:09:53.562Z,5.03
2018-12-01T18:12:22.941Z,6.13
2018-12-01T18:14:52.252Z,7.57
2018-12-01T18:17:21.572Z,5.97
2018-12-01T18:19:50.849Z,8.13
2018-12-01T18:22:20.393Z,8.23
2018-12-01T18:24:49.691Z,6.83
2018-12-01T18:27:19.071Z,5.50
2018-12-01T18:29:48.337Z,6.17
2018-12-01T18:32:17.840Z,6.20
2018-12-01T18:34:47.123Z,7.10
2018-12-01T18:37:16.541Z,8.10
2018-12-01T18:39:45.835Z,10.03
2018-12-01T18:42:15.139Z,8.63
2018-12-01T18:44:44.418Z,8.07
2018-12-01T18:47:13.674Z,8.47
2018-12-01T18:49:43.228Z,6.00
2018-12-01T18:52:12.559Z,7.30
2018-12-01T18:54:41.869Z,6.60
2018-12-01T18:57:11.198Z,7.83
2018-12-01T18:59:40.495Z,6.80
2018-12-01T19:02:09.821Z,3.87
2018-12-01T19:04:39.105Z,6.43
2018-12-01T19:07:08.478Z,7.60
2018-12-01T19:09:37.830Z,5.97
2018-12-01T19:12:07.258Z,7.23
2018-12-01T19:14:39.711Z,5.43
2018-12-01T19:17:09.103Z,8.53
2018-12-01T19:19:38.577Z,4.90
2018-12-01T19:22:07.936Z,7.80
2018-12-01T19:24:37.210Z,8.07
2018-12-01T19:27:06.556Z,7.90
2018-12-01T19:29:36.059Z,8.17
2018-12-01T19:32:05.519Z,7.47
2018-12-01T19:34:34.842Z,9.27
2018-12-01T19:37:06.203Z,10.00
2018-12-01T19:39:35.531Z,7.27
2018-12-01T19:42:05.211Z,6.60
2018-12-01T19:44:35.567Z,6.63
2018-12-01T19:47:04.935Z,7.83
2018-12-01T19:49:34.264Z,8.50
2018-12-01T19:52:15.767Z,7.27
2018-12-01T19:54:45.103Z,6.60
2018-12-01T19:57:14.783Z,8.93
2018-12-01T19:59:45.075Z,5.90
2018-12-01T20:02:17.305Z,4.90
2018-12-01T20:04:49.641Z,6.87
2018-12-01T20:07:19.261Z,9.57
2018-12-01T20:09:48.630Z,8.60
2018-12-01T20:12:17.936Z,5.30
2018-12-01T20:14:48.839Z,7.30
2018-12-01T20:17:18.178Z,10.00
2018-12-01T20:19:47.692Z,6.60
2018-12-01T20:22:17.731Z,6.50
2018-12-01T20:24:48.032Z,6.40
2018-12-01T20:27:20.016Z,5.97
2018-12-01T20:29:50.095Z,4.93
2018-12-01T20:32:19.548Z,6.43
2018-12-01T20:34:49.809Z,5.50
2018-12-01T20:37:20.700Z,6.67
2018-12-01T20:39:52.924Z,7.07
2018-12-01T20:42:22.433Z,6.23
2018-12-01T20:44:53.604Z,6.23
2018-12-01T20:47:23.058Z,3.90
2018-12-01T20:49:52.394Z,4.73
2018-12-01T20:52:23.842Z,5.43
2018-12-01T20:54:53.163Z,3.93
2018-12-01T20:57:31.104Z,5.93
2018-12-01T21:00:01.032Z,6.67
2018-12-01T21:02:30.285Z,4.47
2018-12-01T21:04:59.518Z,5.27
2018-12-01T21:07:28.821Z,3.70
2018-12-01T21:09:58.148Z,5.00
2018-12-01T21:12:27.510Z,6.67
2018-12-01T21:14:56.868Z,5.53
2018-12-01T21:17:26.127Z,5.00
2018-12-01T21:19:55.494Z,4.30
2018-12-01T21:22:26.853Z,7.07
2018-12-01T21:24:56.198Z,6.20
2018-12-01T21:27:27.535Z,7.93
2018-12-01T21:29:56.956Z,5.23
2018-12-01T21:32:26.369Z,6.27
2018-12-01T21:34:55.639Z,4.77
2018-12-01T21:37:24.946Z,3.43
2018-12-01T21:39:54.286Z,4.83
2018-12-01T21:42:24.603Z,5.90
2018-12-01T21:44:53.869Z,5.20
2018-12-01T21:47:23.206Z,5.57
2018-12-01T21:49:52.508Z,4.67
2018-12-01T21:52:21.805Z,5.87
2018-12-01T21:54:51.142Z,6.10
2018-12-01T21:57:20.430Z,4.13
2018-12-01T21:59:50.854Z,3.53
2018-12-01T22:02:20.157Z,3.20
2018-12-01T22:04:49.444Z,4.03
2018-12-01T22:07:18.744Z,5.00
2018-12-01T22:09:48.105Z,3.30
2018-12-01T22:12:17.568Z,4.53
2018-12-01T22:14:46.906Z,4.17
2018-12-01T22:17:16.255Z,5.33
2018-12-01T22:19:45.606Z,4.13
2018-12-01T22:22:15.486Z,5.63
2018-12-01T22:24:44.163Z,5.13
2018-12-01T22:27:13.397Z,3.60
2018-12-01T22:29:42.662Z,3.53
2018-12-01T22:32:11.968Z,3.73
2018-12-01T22:34:41.205Z,7.20
2018-12-01T22:37:10.530Z,7.30
2018-12-01T22:39:39.783Z,6.13
2018-12-01T22:42:09.073Z,4.77
2018-12-01T22:44:38.355Z,4.87
2018-12-01T22:47:07.710Z,6.77
2018-12-01T22:49:37.280Z,6.67
2018-12-01T22:52:06.670Z,5.20
2018-12-01T22:54:35.997Z,5.87
2018-12-01T22:57:05.836Z,4.50
2018-12-01T22:59:35.423Z,4.27
2018-12-01T23:02:04.729Z,5.30
2018-12-01T23:04:35.108Z,4.97
2018-12-01T23:07:04.367Z,2.80
2018-12-01T23:09:33.752Z,4.87
2018-12-01T23:12:03.181Z,5.10
2018-12-01T23:14:32.444Z,4.47
2018-12-01T23:17:01.816Z,4.57
2018-12-01T23:19:31.131Z,3.47
2018-12-01T23:22:00.580Z,3.60
2018-12-01T23:24:30.019Z,5.13
2018-12-01T23:27:00.399Z,4.37
2018-12-01T23:29:29.750Z,4.37
2018-12-01T23:31:59.271Z,4.77
2018-12-01T23:34:28.643Z,4.80
2018-12-01T23:36:57.994Z,5.47
2018-12-01T23:39:27.317Z,3.33
2018-12-01T23:41:58.700Z,4.57
2018-12-01T23:44:29.869Z,2.23
2018-12-01T23:46:59.171Z,1.70
2018-12-01T23:49:28.541Z,3.87
2018-12-01T23:51:57.892Z,2.07
2018-12-01T23:54:27.249Z,2.63
2018-12-01T23:56:57.737Z,3.73
2018-12-01T23:59:27.263Z,2.83
